sensor_id;sensor_type;location;lat;lon;timestamp;temperature;humidity
53146;DHT22;39042;53.150;5.898;2023-01-15T00:03:47;6.40;99.90
53146;DHT22;39042;53.150;5.898;2023-01-15T00:06:14;6.40;99.90
53146;DHT22;39042;53.150;5.898;2023-01-15T00:08:39;6.40;99.90
53146;DHT22;39042;53.150;5.898;2023-01-15T00:11:05;6.40;99.90
53146;DHT22;39042;53.150;5.898;2023-01-15T00:13:31;6.40;99.90
53146;DHT22;39042;53.150;5.898;2023-01-15T00:18:53;6.40;99.90
53146;DHT22;39042;53.150;5.898;2023-01-15T00:21:19;6.50;99.90
53146;DHT22;39042;53.150;5.898;2023-01-15T00:23:46;6.50;99.90
53146;DHT22;39042;53.150;5.898;2023-01-15T00:26:30;6.50;99.90
53146;DHT22;39042;53.150;5.898;2023-01-15T00:29:15;6.50;99.90
53146;DHT22;39042;53.150;5.898;2023-01-15T00:31:41;6.50;99.90
53146;DHT22;39042;53.150;5.898;2023-01-15T00:34:08;6.50;99.90
53146;DHT22;39042;53.150;5.898;2023-01-15T00:36:34;6.50;99.90
53146;DHT22;39042;53.150;5.898;2023-01-15T00:39:02;6.50;99.90
53146;DHT22;39042;53.150;5.898;2023-01-15T00:41:28;6.50;99.90
53146;DHT22;39042;53.150;5.898;2023-01-15T00:43:54;6.50;99.90
53146;DHT22;39042;53.150;5.898;2023-01-15T00:46:19;6.50;99.90
53146;DHT22;39042;53.150;5.898;2023-01-15T00:48:46;6.50;99.90
53146;DHT22;39042;53.150;5.898;2023-01-15T00:51:12;6.50;99.90
53146;DHT22;39042;53.150;5.898;2023-01-15T00:53:37;6.50;99.90
53146;DHT22;39042;53.150;5.898;2023-01-15T00:56:03;6.40;99.90
53146;DHT22;39042;53.150;5.898;2023-01-15T00:58:29;6.40;99.90
53146;DHT22;39042;53.150;5.898;2023-01-15T01:00:55;6.40;99.90
53146;DHT22;39042;53.150;5.898;2023-01-15T01:03:22;6.30;99.90
53146;DHT22;39042;53.150;5.898;2023-01-15T01:05:47;6.30;99.90
53146;DHT22;39042;53.150;5.898;2023-01-15T01:08:13;6.30;99.90
53146;DHT22;39042;53.150;5.898;2023-01-15T01:10:39;6.30;99.90
53146;DHT22;39042;53.150;5.898;2023-01-15T01:13:05;6.20;99.90
53146;DHT22;39042;53.150;5.898;2023-01-15T01:15:34;6.30;99.90
53146;DHT22;39042;53.150;5.898;2023-01-15T01:18:00;6.20;99.90
53146;DHT22;39042;53.150;5.898;2023-01-15T01:20:26;6.20;99.90
53146;DHT22;39042;53.150;5.898;2023-01-15T01:22:52;6.30;99.90
53146;DHT22;39042;53.150;5.898;2023-01-15T01:25:18;6.30;99.90
53146;DHT22;39042;53.150;5.898;2023-01-15T01:27:44;6.30;99.90
53146;DHT22;39042;53.150;5.898;2023-01-15T01:30:10;6.30;99.90
53146;DHT22;39042;53.150;5.898;2023-01-15T01:32:36;6.30;99.90
53146;DHT22;39042;53.150;5.898;2023-01-15T01:35:01;6.30;99.90
53146;DHT22;39042;53.150;5.898;2023-01-15T01:37:27;6.30;99.90
53146;DHT22;39042;53.150;5.898;2023-01-15T01:39:53;6.30;99.90
53146;DHT22;39042;53.150;5.898;2023-01-15T01:42:19;6.30;99.90
53146;DHT22;39042;53.150;5.898;2023-01-15T01:47:12;6.40;99.90
53146;DHT22;39042;53.150;5.898;2023-01-15T01:49:40;6.40;99.90
53146;DHT22;39042;53.150;5.898;2023-01-15T01:52:07;6.40;99.90
53146;DHT22;39042;53.150;5.898;2023-01-15T01:54:33;6.40;99.90
53146;DHT22;39042;53.150;5.898;2023-01-15T01:56:59;6.30;99.90
53146;DHT22;39042;53.150;5.898;2023-01-15T01:59:25;6.30;99.90
53146;DHT22;39042;53.150;5.898;2023-01-15T02:01:52;6.20;99.90
53146;DHT22;39042;53.150;5.898;2023-01-15T02:04:19;6.30;99.90
53146;DHT22;39042;53.150;5.898;2023-01-15T02:06:46;6.20;99.90
53146;DHT22;39042;53.150;5.898;2023-01-15T02:09:12;6.20;99.90
53146;DHT22;39042;53.150;5.898;2023-01-15T02:11:38;6.20;99.90
53146;DHT22;39042;53.150;5.898;2023-01-15T02:14:11;6.20;99.90
53146;DHT22;39042;53.150;5.898;2023-01-15T02:29:17;6.20;99.90
53146;DHT22;39042;53.150;5.898;2023-01-15T02:31:45;6.30;99.90
53146;DHT22;39042;53.150;5.898;2023-01-15T02:34:21;6.30;99.90
53146;DHT22;39042;53.150;5.898;2023-01-15T02:36:50;6.30;99.90
53146;DHT22;39042;53.150;5.898;2023-01-15T02:39:22;6.30;99.90
53146;DHT22;39042;53.150;5.898;2023-01-15T02:41:50;6.30;99.90
53146;DHT22;39042;53.150;5.898;2023-01-15T02:44:18;6.30;99.90
53146;DHT22;39042;53.150;5.898;2023-01-15T02:46:45;6.30;99.90
53146;DHT22;39042;53.150;5.898;2023-01-15T02:49:12;6.30;99.90
53146;DHT22;39042;53.150;5.898;2023-01-15T02:51:47;6.30;99.90
53146;DHT22;39042;53.150;5.898;2023-01-15T02:54:16;6.30;99.90
53146;DHT22;39042;53.150;5.898;2023-01-15T02:56:44;6.20;99.90
53146;DHT22;39042;53.150;5.898;2023-01-15T02:59:14;6.20;99.90
53146;DHT22;39042;53.150;5.898;2023-01-15T03:01:54;6.20;99.90
53146;DHT22;39042;53.150;5.898;2023-01-15T03:04:21;6.20;99.90
53146;DHT22;39042;53.150;5.898;2023-01-15T03:09:36;6.20;99.90
53146;DHT22;39042;53.150;5.898;2023-01-15T03:17:09;6.10;99.90
53146;DHT22;39042;53.150;5.898;2023-01-15T03:19:40;6.10;99.90
53146;DHT22;39042;53.150;5.898;2023-01-15T03:22:22;6.10;99.90
53146;DHT22;39042;53.150;5.898;2023-01-15T03:24:53;6.10;99.90
53146;DHT22;39042;53.150;5.898;2023-01-15T03:27:20;6.10;99.90
53146;DHT22;39042;53.150;5.898;2023-01-15T03:29:52;6.10;99.90
53146;DHT22;39042;53.150;5.898;2023-01-15T03:32:19;6.00;99.90
53146;DHT22;39042;53.150;5.898;2023-01-15T03:34:47;6.10;99.90
53146;DHT22;39042;53.150;5.898;2023-01-15T03:37:17;6.00;99.90
53146;DHT22;39042;53.150;5.898;2023-01-15T03:39:43;6.00;99.90
53146;DHT22;39042;53.150;5.898;2023-01-15T03:44:56;6.00;99.90
53146;DHT22;39042;53.150;5.898;2023-01-15T03:55:57;5.90;99.90
53146;DHT22;39042;53.150;5.898;2023-01-15T03:58:28;5.90;99.90
53146;DHT22;39042;53.150;5.898;2023-01-15T04:00:57;5.80;99.90
53146;DHT22;39042;53.150;5.898;2023-01-15T04:03:24;5.80;99.90
53146;DHT22;39042;53.150;5.898;2023-01-15T04:05:51;5.80;99.90
53146;DHT22;39042;53.150;5.898;2023-01-15T04:08:20;5.80;99.90
53146;DHT22;39042;53.150;5.898;2023-01-15T04:13:18;5.70;99.90
53146;DHT22;39042;53.150;5.898;2023-01-15T04:15:44;5.70;99.90
53146;DHT22;39042;53.150;5.898;2023-01-15T04:18:11;5.70;99.90
53146;DHT22;39042;53.150;5.898;2023-01-15T04:20:37;5.70;99.90
53146;DHT22;39042;53.150;5.898;2023-01-15T04:23:02;5.60;99.90
53146;DHT22;39042;53.150;5.898;2023-01-15T04:25:28;5.60;99.90
53146;DHT22;39042;53.150;5.898;2023-01-15T04:27:54;5.60;99.90
53146;DHT22;39042;53.150;5.898;2023-01-15T04:30:20;5.60;99.90
53146;DHT22;39042;53.150;5.898;2023-01-15T04:32:49;5.60;99.90
53146;DHT22;39042;53.150;5.898;2023-01-15T04:35:15;5.50;99.90
53146;DHT22;39042;53.150;5.898;2023-01-15T04:37:41;5.50;99.90
53146;DHT22;39042;53.150;5.898;2023-01-15T04:40:07;5.50;99.90
53146;DHT22;39042;53.150;5.898;2023-01-15T04:42:33;5.50;99.90
53146;DHT22;39042;53.150;5.898;2023-01-15T04:45:17;5.50;99.90
53146;DHT22;39042;53.150;5.898;2023-01-15T04:47:43;5.50;99.90
53146;DHT22;39042;53.150;5.898;2023-01-15T04:50:09;5.50;99.90
53146;DHT22;39042;53.150;5.898;2023-01-15T04:52:35;5.50;99.90
53146;DHT22;39042;53.150;5.898;2023-01-15T04:55:01;5.40;99.90
53146;DHT22;39042;53.150;5.898;2023-01-15T04:57:27;5.40;99.90
53146;DHT22;39042;53.150;5.898;2023-01-15T04:59:53;5.40;99.90
53146;DHT22;39042;53.150;5.898;2023-01-15T05:02:18;5.40;99.90
53146;DHT22;39042;53.150;5.898;2023-01-15T05:04:44;5.30;99.90
53146;DHT22;39042;53.150;5.898;2023-01-15T05:07:10;5.30;99.90
53146;DHT22;39042;53.150;5.898;2023-01-15T05:09:35;5.30;99.90
53146;DHT22;39042;53.150;5.898;2023-01-15T05:12:01;5.30;99.90
53146;DHT22;39042;53.150;5.898;2023-01-15T05:14:27;5.30;99.90
53146;DHT22;39042;53.150;5.898;2023-01-15T05:16:53;5.30;99.90
53146;DHT22;39042;53.150;5.898;2023-01-15T05:19:18;5.30;99.90
53146;DHT22;39042;53.150;5.898;2023-01-15T05:21:44;5.30;99.90
53146;DHT22;39042;53.150;5.898;2023-01-15T05:24:14;5.20;99.90
53146;DHT22;39042;53.150;5.898;2023-01-15T05:26:40;5.20;99.90
53146;DHT22;39042;53.150;5.898;2023-01-15T05:29:06;5.20;99.90
53146;DHT22;39042;53.150;5.898;2023-01-15T05:31:32;5.20;99.90
53146;DHT22;39042;53.150;5.898;2023-01-15T05:33:58;5.10;99.90
53146;DHT22;39042;53.150;5.898;2023-01-15T05:36:25;5.10;99.90
53146;DHT22;39042;53.150;5.898;2023-01-15T05:38:55;5.10;99.90
53146;DHT22;39042;53.150;5.898;2023-01-15T05:41:24;5.10;99.90
53146;DHT22;39042;53.150;5.898;2023-01-15T05:44:11;5.00;99.90
53146;DHT22;39042;53.150;5.898;2023-01-15T05:46:38;5.00;99.90
53146;DHT22;39042;53.150;5.898;2023-01-15T05:49:05;5.00;99.90
53146;DHT22;39042;53.150;5.898;2023-01-15T05:51:32;5.00;99.90
53146;DHT22;39042;53.150;5.898;2023-01-15T05:53:58;5.00;99.90
53146;DHT22;39042;53.150;5.898;2023-01-15T05:56:24;4.90;99.90
53146;DHT22;39042;53.150;5.898;2023-01-15T05:58:50;4.90;99.90
53146;DHT22;39042;53.150;5.898;2023-01-15T06:01:16;5.00;99.90
53146;DHT22;39042;53.150;5.898;2023-01-15T06:03:41;5.00;99.90
53146;DHT22;39042;53.150;5.898;2023-01-15T06:06:11;5.00;99.90
53146;DHT22;39042;53.150;5.898;2023-01-15T06:08:37;5.00;99.90
53146;DHT22;39042;53.150;5.898;2023-01-15T06:11:02;5.00;99.90
53146;DHT22;39042;53.150;5.898;2023-01-15T06:13:28;4.90;99.90
53146;DHT22;39042;53.150;5.898;2023-01-15T06:15:54;4.90;99.90
53146;DHT22;39042;53.150;5.898;2023-01-15T06:18:21;5.00;99.90
53146;DHT22;39042;53.150;5.898;2023-01-15T06:20:48;5.00;99.90
53146;DHT22;39042;53.150;5.898;2023-01-15T06:23:13;5.00;99.90
53146;DHT22;39042;53.150;5.898;2023-01-15T06:25:41;5.10;99.90
53146;DHT22;39042;53.150;5.898;2023-01-15T06:28:07;5.10;99.90
53146;DHT22;39042;53.150;5.898;2023-01-15T06:30:33;5.10;99.90
53146;DHT22;39042;53.150;5.898;2023-01-15T06:32:59;5.10;99.90
53146;DHT22;39042;53.150;5.898;2023-01-15T06:35:25;5.10;99.90
53146;DHT22;39042;53.150;5.898;2023-01-15T06:37:51;5.10;99.90
53146;DHT22;39042;53.150;5.898;2023-01-15T06:40:17;5.10;99.90
53146;DHT22;39042;53.150;5.898;2023-01-15T06:42:43;5.10;99.90
53146;DHT22;39042;53.150;5.898;2023-01-15T06:45:28;5.10;99.90
53146;DHT22;39042;53.150;5.898;2023-01-15T06:48:15;5.10;99.90
53146;DHT22;39042;53.150;5.898;2023-01-15T06:50:41;5.00;99.90
53146;DHT22;39042;53.150;5.898;2023-01-15T06:53:07;5.00;99.90
53146;DHT22;39042;53.150;5.898;2023-01-15T06:55:33;5.10;99.90
53146;DHT22;39042;53.150;5.898;2023-01-15T06:57:58;5.00;99.90
53146;DHT22;39042;53.150;5.898;2023-01-15T07:00:24;5.00;99.90
53146;DHT22;39042;53.150;5.898;2023-01-15T07:02:49;5.00;99.90
53146;DHT22;39042;53.150;5.898;2023-01-15T07:05:15;5.10;99.90
53146;DHT22;39042;53.150;5.898;2023-01-15T07:07:41;5.10;99.90
53146;DHT22;39042;53.150;5.898;2023-01-15T07:10:06;5.20;99.90
53146;DHT22;39042;53.150;5.898;2023-01-15T07:12:33;5.30;99.90
53146;DHT22;39042;53.150;5.898;2023-01-15T07:14:59;5.30;99.90
53146;DHT22;39042;53.150;5.898;2023-01-15T07:17:24;5.30;99.90
53146;DHT22;39042;53.150;5.898;2023-01-15T07:19:50;5.30;99.90
53146;DHT22;39042;53.150;5.898;2023-01-15T07:22:16;5.40;99.90
53146;DHT22;39042;53.150;5.898;2023-01-15T07:24:41;5.40;99.90
53146;DHT22;39042;53.150;5.898;2023-01-15T07:27:07;5.40;99.90
53146;DHT22;39042;53.150;5.898;2023-01-15T07:29:33;5.40;99.90
53146;DHT22;39042;53.150;5.898;2023-01-15T07:31:58;5.40;99.90
53146;DHT22;39042;53.150;5.898;2023-01-15T07:34:24;5.40;99.90
53146;DHT22;39042;53.150;5.898;2023-01-15T07:36:50;5.40;99.90
53146;DHT22;39042;53.150;5.898;2023-01-15T07:39:16;5.40;99.90
53146;DHT22;39042;53.150;5.898;2023-01-15T07:41:41;5.30;99.90
53146;DHT22;39042;53.150;5.898;2023-01-15T07:44:26;5.30;99.90
53146;DHT22;39042;53.150;5.898;2023-01-15T07:47:20;5.40;99.90
53146;DHT22;39042;53.150;5.898;2023-01-15T07:50:06;5.40;99.90
53146;DHT22;39042;53.150;5.898;2023-01-15T07:52:32;5.40;99.90
53146;DHT22;39042;53.150;5.898;2023-01-15T07:54:57;5.40;99.90
53146;DHT22;39042;53.150;5.898;2023-01-15T07:57:23;5.40;99.90
53146;DHT22;39042;53.150;5.898;2023-01-15T07:59:49;5.40;99.90
53146;DHT22;39042;53.150;5.898;2023-01-15T08:02:15;5.50;99.90
53146;DHT22;39042;53.150;5.898;2023-01-15T08:04:41;5.50;99.90
53146;DHT22;39042;53.150;5.898;2023-01-15T08:07:07;5.50;99.90
53146;DHT22;39042;53.150;5.898;2023-01-15T08:09:33;5.50;99.90
53146;DHT22;39042;53.150;5.898;2023-01-15T08:11:59;5.50;99.90
53146;DHT22;39042;53.150;5.898;2023-01-15T08:14:43;5.50;99.90
53146;DHT22;39042;53.150;5.898;2023-01-15T08:17:27;5.60;99.90
53146;DHT22;39042;53.150;5.898;2023-01-15T08:19:53;5.60;99.90
53146;DHT22;39042;53.150;5.898;2023-01-15T08:22:19;5.60;99.90
53146;DHT22;39042;53.150;5.898;2023-01-15T08:24:44;5.60;99.90
53146;DHT22;39042;53.150;5.898;2023-01-15T08:27:11;5.60;99.90
53146;DHT22;39042;53.150;5.898;2023-01-15T08:29:36;5.60;99.90
53146;DHT22;39042;53.150;5.898;2023-01-15T08:32:02;5.60;99.90
53146;DHT22;39042;53.150;5.898;2023-01-15T08:34:28;5.60;99.90
53146;DHT22;39042;53.150;5.898;2023-01-15T08:36:53;5.60;99.90
53146;DHT22;39042;53.150;5.898;2023-01-15T08:39:27;5.60;99.90
53146;DHT22;39042;53.150;5.898;2023-01-15T08:41:53;5.60;99.90
53146;DHT22;39042;53.150;5.898;2023-01-15T08:44:19;5.50;99.90
53146;DHT22;39042;53.150;5.898;2023-01-15T08:46:49;5.50;99.90
53146;DHT22;39042;53.150;5.898;2023-01-15T08:49:16;5.50;99.90
53146;DHT22;39042;53.150;5.898;2023-01-15T08:51:42;5.50;99.90
53146;DHT22;39042;53.150;5.898;2023-01-15T08:54:08;5.50;99.90
53146;DHT22;39042;53.150;5.898;2023-01-15T08:56:33;5.60;99.90
53146;DHT22;39042;53.150;5.898;2023-01-15T08:59:02;5.60;99.90
53146;DHT22;39042;53.150;5.898;2023-01-15T09:01:29;5.60;99.90
53146;DHT22;39042;53.150;5.898;2023-01-15T09:03:54;5.60;99.90
53146;DHT22;39042;53.150;5.898;2023-01-15T09:06:20;5.60;99.90
53146;DHT22;39042;53.150;5.898;2023-01-15T09:08:46;5.70;99.90
53146;DHT22;39042;53.150;5.898;2023-01-15T09:11:11;5.80;99.90
53146;DHT22;39042;53.150;5.898;2023-01-15T09:13:38;5.80;99.90
53146;DHT22;39042;53.150;5.898;2023-01-15T09:16:04;5.80;99.90
53146;DHT22;39042;53.150;5.898;2023-01-15T09:18:30;5.80;99.90
53146;DHT22;39042;53.150;5.898;2023-01-15T09:20:56;5.90;99.90
53146;DHT22;39042;53.150;5.898;2023-01-15T09:23:22;5.90;99.90
53146;DHT22;39042;53.150;5.898;2023-01-15T09:25:55;6.00;99.90
53146;DHT22;39042;53.150;5.898;2023-01-15T09:28:21;6.00;99.90
53146;DHT22;39042;53.150;5.898;2023-01-15T09:30:47;6.10;99.90
53146;DHT22;39042;53.150;5.898;2023-01-15T09:33:12;6.20;99.90
53146;DHT22;39042;53.150;5.898;2023-01-15T09:35:39;6.30;99.90
53146;DHT22;39042;53.150;5.898;2023-01-15T09:38:05;6.40;99.90
53146;DHT22;39042;53.150;5.898;2023-01-15T09:40:47;6.40;99.90
53146;DHT22;39042;53.150;5.898;2023-01-15T09:45:44;6.60;99.90
53146;DHT22;39042;53.150;5.898;2023-01-15T09:48:32;6.50;99.90
53146;DHT22;39042;53.150;5.898;2023-01-15T09:56:20;6.60;99.90
53146;DHT22;39042;53.150;5.898;2023-01-15T09:58:46;6.60;99.90
53146;DHT22;39042;53.150;5.898;2023-01-15T10:01:15;6.60;99.90
53146;DHT22;39042;53.150;5.898;2023-01-15T10:03:50;6.60;99.90
53146;DHT22;39042;53.150;5.898;2023-01-15T10:06:21;6.60;99.90
53146;DHT22;39042;53.150;5.898;2023-01-15T10:08:48;6.60;99.90
53146;DHT22;39042;53.150;5.898;2023-01-15T10:13:42;6.50;99.90
53146;DHT22;39042;53.150;5.898;2023-01-15T10:16:09;6.50;99.90
53146;DHT22;39042;53.150;5.898;2023-01-15T10:18:35;6.50;99.90
53146;DHT22;39042;53.150;5.898;2023-01-15T10:21:06;6.50;99.90
53146;DHT22;39042;53.150;5.898;2023-01-15T10:23:38;6.50;99.90
53146;DHT22;39042;53.150;5.898;2023-01-15T10:31:13;6.70;99.90
53146;DHT22;39042;53.150;5.898;2023-01-15T10:39:13;7.10;99.90
53146;DHT22;39042;53.150;5.898;2023-01-15T10:42:05;7.10;99.90
53146;DHT22;39042;53.150;5.898;2023-01-15T10:44:42;7.20;99.90
53146;DHT22;39042;53.150;5.898;2023-01-15T10:47:11;7.30;99.90
53146;DHT22;39042;53.150;5.898;2023-01-15T10:49:38;7.40;99.90
53146;DHT22;39042;53.150;5.898;2023-01-15T10:52:07;7.50;99.90
53146;DHT22;39042;53.150;5.898;2023-01-15T10:54:38;7.50;99.90
53146;DHT22;39042;53.150;5.898;2023-01-15T10:57:13;7.50;99.90
53146;DHT22;39042;53.150;5.898;2023-01-15T10:59:57;7.50;99.90
53146;DHT22;39042;53.150;5.898;2023-01-15T11:04:49;7.40;99.90
53146;DHT22;39042;53.150;5.898;2023-01-15T11:07:14;7.40;99.90
53146;DHT22;39042;53.150;5.898;2023-01-15T11:09:41;7.50;99.90
53146;DHT22;39042;53.150;5.898;2023-01-15T11:14:45;7.50;99.90
53146;DHT22;39042;53.150;5.898;2023-01-15T11:17:30;7.50;99.90
53146;DHT22;39042;53.150;5.898;2023-01-15T11:20:35;7.60;99.90
53146;DHT22;39042;53.150;5.898;2023-01-15T11:25:33;7.50;99.90
53146;DHT22;39042;53.150;5.898;2023-01-15T11:27:59;7.50;99.90
53146;DHT22;39042;53.150;5.898;2023-01-15T11:30:35;7.40;99.90
53146;DHT22;39042;53.150;5.898;2023-01-15T11:33:05;7.40;99.90
53146;DHT22;39042;53.150;5.898;2023-01-15T11:35:32;7.30;99.90
53146;DHT22;39042;53.150;5.898;2023-01-15T11:38:16;7.20;99.90
53146;DHT22;39042;53.150;5.898;2023-01-15T11:41:42;7.10;99.90
53146;DHT22;39042;53.150;5.898;2023-01-15T11:43:37;7.00;99.90
53146;DHT22;39042;53.150;5.898;2023-01-15T11:46:23;7.00;99.90
53146;DHT22;39042;53.150;5.898;2023-01-15T11:49:07;6.80;99.90
53146;DHT22;39042;53.150;5.898;2023-01-15T11:51:51;6.80;99.90
53146;DHT22;39042;53.150;5.898;2023-01-15T11:54:17;6.70;99.90
53146;DHT22;39042;53.150;5.898;2023-01-15T11:56:44;6.60;99.90
53146;DHT22;39042;53.150;5.898;2023-01-15T11:59:13;6.40;99.90
53146;DHT22;39042;53.150;5.898;2023-01-15T12:01:55;6.20;99.90
53146;DHT22;39042;53.150;5.898;2023-01-15T12:04:35;5.90;99.90
53146;DHT22;39042;53.150;5.898;2023-01-15T12:07:03;5.80;99.90
53146;DHT22;39042;53.150;5.898;2023-01-15T12:09:40;5.70;99.90
53146;DHT22;39042;53.150;5.898;2023-01-15T12:12:18;5.60;99.90
53146;DHT22;39042;53.150;5.898;2023-01-15T12:28:21;6.00;99.90
53146;DHT22;39042;53.150;5.898;2023-01-15T12:30:18;6.00;99.90
53146;DHT22;39042;53.150;5.898;2023-01-15T12:32:49;6.00;99.90
53146;DHT22;39042;53.150;5.898;2023-01-15T12:35:25;6.00;99.90
53146;DHT22;39042;53.150;5.898;2023-01-15T12:37:52;6.00;99.90
53146;DHT22;39042;53.150;5.898;2023-01-15T12:40:29;6.00;99.90
53146;DHT22;39042;53.150;5.898;2023-01-15T12:42:56;6.00;99.90
53146;DHT22;39042;53.150;5.898;2023-01-15T12:45:45;6.00;99.90
53146;DHT22;39042;53.150;5.898;2023-01-15T12:50:52;6.10;99.90
53146;DHT22;39042;53.150;5.898;2023-01-15T12:55:49;6.10;99.90
53146;DHT22;39042;53.150;5.898;2023-01-15T12:58:19;6.20;99.90
53146;DHT22;39042;53.150;5.898;2023-01-15T13:00:47;6.20;99.90
53146;DHT22;39042;53.150;5.898;2023-01-15T13:05:43;6.20;99.90
53146;DHT22;39042;53.150;5.898;2023-01-15T13:08:14;6.20;99.90
53146;DHT22;39042;53.150;5.898;2023-01-15T13:10:43;6.20;99.90
53146;DHT22;39042;53.150;5.898;2023-01-15T13:15:41;6.20;99.90
53146;DHT22;39042;53.150;5.898;2023-01-15T20:34:37;4.70;99.90
53146;DHT22;39042;53.150;5.898;2023-01-15T20:37:04;4.90;99.90
53146;DHT22;39042;53.150;5.898;2023-01-15T20:39:29;4.90;99.90
53146;DHT22;39042;53.150;5.898;2023-01-15T20:41:56;5.00;99.90
53146;DHT22;39042;53.150;5.898;2023-01-15T20:44:41;5.10;99.90
53146;DHT22;39042;53.150;5.898;2023-01-15T20:47:20;5.00;99.90
53146;DHT22;39042;53.150;5.898;2023-01-15T20:49:55;5.10;99.90
53146;DHT22;39042;53.150;5.898;2023-01-15T20:52:21;5.10;99.90
53146;DHT22;39042;53.150;5.898;2023-01-15T20:54:46;5.10;99.90
53146;DHT22;39042;53.150;5.898;2023-01-15T20:57:12;5.10;99.90
53146;DHT22;39042;53.150;5.898;2023-01-15T20:59:37;5.10;99.90
53146;DHT22;39042;53.150;5.898;2023-01-15T21:02:03;5.20;99.90
53146;DHT22;39042;53.150;5.898;2023-01-15T21:04:29;5.20;99.90
